sensor_id;sensor_type;location;lat;lon;timestamp;temperature;humidity
65074;DHT22;52218;51.224;-2.328;2022-12-18T00:00:05;-3.60;99.90
65074;DHT22;52218;51.224;-2.328;2022-12-18T00:03:48;-3.60;99.90
65074;DHT22;52218;51.224;-2.328;2022-12-18T00:07:30;-3.60;99.90
65074;DHT22;52218;51.224;-2.328;2022-12-18T00:11:15;-3.60;99.90
65074;DHT22;52218;51.224;-2.328;2022-12-18T00:14:58;-3.60;99.90
65074;DHT22;52218;51.224;-2.328;2022-12-18T00:18:40;-3.60;99.90
65074;DHT22;52218;51.224;-2.328;2022-12-18T00:22:23;-3.70;99.90
65074;DHT22;52218;51.224;-2.328;2022-12-18T00:26:08;-3.70;99.90
65074;DHT22;52218;51.224;-2.328;2022-12-18T00:29:51;-3.70;99.90
65074;DHT22;52218;51.224;-2.328;2022-12-18T00:33:34;-3.70;99.90
65074;DHT22;52218;51.224;-2.328;2022-12-18T00:37:16;-3.80;99.90
65074;DHT22;52218;51.224;-2.328;2022-12-18T00:41:01;-3.80;99.90
65074;DHT22;52218;51.224;-2.328;2022-12-18T00:44:43;-3.70;99.90
65074;DHT22;52218;51.224;-2.328;2022-12-18T00:48:25;-3.70;99.90
65074;DHT22;52218;51.224;-2.328;2022-12-18T00:52:07;-3.60;99.90
65074;DHT22;52218;51.224;-2.328;2022-12-18T00:55:49;-3.40;99.90
65074;DHT22;52218;51.224;-2.328;2022-12-18T00:59:31;-3.20;99.90
65074;DHT22;52218;51.224;-2.328;2022-12-18T01:03:14;-2.90;99.90
65074;DHT22;52218;51.224;-2.328;2022-12-18T01:06:56;-2.60;99.90
65074;DHT22;52218;51.224;-2.328;2022-12-18T01:10:40;-2.40;99.90
65074;DHT22;52218;51.224;-2.328;2022-12-18T01:14:23;-2.30;99.90
65074;DHT22;52218;51.224;-2.328;2022-12-18T01:18:05;-2.10;99.90
65074;DHT22;52218;51.224;-2.328;2022-12-18T01:21:47;-2.00;99.90
65074;DHT22;52218;51.224;-2.328;2022-12-18T01:25:29;-2.00;99.90
65074;DHT22;52218;51.224;-2.328;2022-12-18T01:29:11;-1.80;99.90
65074;DHT22;52218;51.224;-2.328;2022-12-18T01:32:53;-1.60;99.90
65074;DHT22;52218;51.224;-2.328;2022-12-18T01:36:37;-1.40;99.90
65074;DHT22;52218;51.224;-2.328;2022-12-18T01:40:20;-1.40;99.90
65074;DHT22;52218;51.224;-2.328;2022-12-18T01:48:23;-1.30;99.90
65074;DHT22;52218;51.224;-2.328;2022-12-18T01:52:05;-1.30;99.90
65074;DHT22;52218;51.224;-2.328;2022-12-18T01:55:51;-1.30;99.90
65074;DHT22;52218;51.224;-2.328;2022-12-18T01:59:34;-1.40;99.90
65074;DHT22;52218;51.224;-2.328;2022-12-18T02:03:18;-1.30;99.90
65074;DHT22;52218;51.224;-2.328;2022-12-18T02:11:27;-1.30;99.90
65074;DHT22;52218;51.224;-2.328;2022-12-18T02:19:15;-1.30;99.90
65074;DHT22;52218;51.224;-2.328;2022-12-18T02:27:07;-1.20;99.90
65074;DHT22;52218;51.224;-2.328;2022-12-18T02:30:50;-1.10;99.90
65074;DHT22;52218;51.224;-2.328;2022-12-18T02:34:38;-1.10;99.90
65074;DHT22;52218;51.224;-2.328;2022-12-18T02:38:20;-1.10;99.90
65074;DHT22;52218;51.224;-2.328;2022-12-18T02:42:03;-1.10;99.90
65074;DHT22;52218;51.224;-2.328;2022-12-18T02:45:55;-1.10;99.90
65074;DHT22;52218;51.224;-2.328;2022-12-18T02:53:48;-1.00;99.90
65074;DHT22;52218;51.224;-2.328;2022-12-18T02:57:56;-1.00;99.90
65074;DHT22;52218;51.224;-2.328;2022-12-18T03:05:31;-1.00;99.90
65074;DHT22;52218;51.224;-2.328;2022-12-18T03:09:19;-1.00;99.90
65074;DHT22;52218;51.224;-2.328;2022-12-18T03:13:28;-1.00;99.90
65074;DHT22;52218;51.224;-2.328;2022-12-18T03:17:15;-0.90;99.90
65074;DHT22;52218;51.224;-2.328;2022-12-18T03:21:05;-0.80;99.90
65074;DHT22;52218;51.224;-2.328;2022-12-18T03:24:48;-0.70;99.90
65074;DHT22;52218;51.224;-2.328;2022-12-18T03:28:32;-0.70;99.90
65074;DHT22;52218;51.224;-2.328;2022-12-18T03:32:30;-0.70;99.90
65074;DHT22;52218;51.224;-2.328;2022-12-18T03:36:12;-0.70;99.90
65074;DHT22;52218;51.224;-2.328;2022-12-18T03:39:55;-0.70;99.90
65074;DHT22;52218;51.224;-2.328;2022-12-18T03:43:42;-0.60;99.90
65074;DHT22;52218;51.224;-2.328;2022-12-18T03:55:11;-0.40;99.90
65074;DHT22;52218;51.224;-2.328;2022-12-18T03:58:54;-0.40;99.90
65074;DHT22;52218;51.224;-2.328;2022-12-18T04:02:40;-0.40;99.90
65074;DHT22;52218;51.224;-2.328;2022-12-18T04:06:25;-0.40;99.90
65074;DHT22;52218;51.224;-2.328;2022-12-18T04:10:08;-0.30;99.90
65074;DHT22;52218;51.224;-2.328;2022-12-18T04:13:55;-0.30;99.90
65074;DHT22;52218;51.224;-2.328;2022-12-18T04:17:39;-0.30;99.90
65074;DHT22;52218;51.224;-2.328;2022-12-18T04:21:23;-0.20;99.90
65074;DHT22;52218;51.224;-2.328;2022-12-18T04:25:06;-0.20;99.90
65074;DHT22;52218;51.224;-2.328;2022-12-18T04:28:48;-0.10;99.90
65074;DHT22;52218;51.224;-2.328;2022-12-18T04:32:30;0.00;99.90
65074;DHT22;52218;51.224;-2.328;2022-12-18T04:36:12;0.10;99.90
65074;DHT22;52218;51.224;-2.328;2022-12-18T04:39:54;0.30;99.90
65074;DHT22;52218;51.224;-2.328;2022-12-18T04:43:36;0.40;99.90
65074;DHT22;52218;51.224;-2.328;2022-12-18T04:47:18;0.50;99.90
65074;DHT22;52218;51.224;-2.328;2022-12-18T04:51:00;0.60;99.90
65074;DHT22;52218;51.224;-2.328;2022-12-18T04:54:43;0.60;99.90
65074;DHT22;52218;51.224;-2.328;2022-12-18T04:58:25;0.80;99.90
65074;DHT22;52218;51.224;-2.328;2022-12-18T05:02:06;0.80;99.90
65074;DHT22;52218;51.224;-2.328;2022-12-18T05:05:51;1.00;99.90
65074;DHT22;52218;51.224;-2.328;2022-12-18T05:09:34;1.00;99.90
65074;DHT22;52218;51.224;-2.328;2022-12-18T05:13:16;1.10;99.90
65074;DHT22;52218;51.224;-2.328;2022-12-18T05:16:58;1.20;99.90
65074;DHT22;52218;51.224;-2.328;2022-12-18T05:20:42;1.30;99.90
65074;DHT22;52218;51.224;-2.328;2022-12-18T05:24:24;1.40;99.90
65074;DHT22;52218;51.224;-2.328;2022-12-18T05:28:05;1.50;99.90
65074;DHT22;52218;51.224;-2.328;2022-12-18T05:31:47;1.50;99.90
65074;DHT22;52218;51.224;-2.328;2022-12-18T05:35:29;1.60;99.90
65074;DHT22;52218;51.224;-2.328;2022-12-18T05:39:11;1.70;99.90
65074;DHT22;52218;51.224;-2.328;2022-12-18T05:42:54;1.80;99.90
65074;DHT22;52218;51.224;-2.328;2022-12-18T05:46:36;1.90;99.90
65074;DHT22;52218;51.224;-2.328;2022-12-18T05:50:18;2.00;99.90
65074;DHT22;52218;51.224;-2.328;2022-12-18T05:54:00;2.10;99.90
65074;DHT22;52218;51.224;-2.328;2022-12-18T05:57:42;2.20;99.90
65074;DHT22;52218;51.224;-2.328;2022-12-18T06:01:25;2.20;99.90
65074;DHT22;52218;51.224;-2.328;2022-12-18T06:05:08;2.30;99.90
65074;DHT22;52218;51.224;-2.328;2022-12-18T06:08:51;2.40;99.90
65074;DHT22;52218;51.224;-2.328;2022-12-18T06:12:33;2.50;99.90
65074;DHT22;52218;51.224;-2.328;2022-12-18T06:16:15;2.50;99.90
65074;DHT22;52218;51.224;-2.328;2022-12-18T06:19:57;2.50;99.90
65074;DHT22;52218;51.224;-2.328;2022-12-18T06:23:39;2.60;99.90
65074;DHT22;52218;51.224;-2.328;2022-12-18T06:27:22;2.60;99.90
65074;DHT22;52218;51.224;-2.328;2022-12-18T06:31:04;2.70;99.90
65074;DHT22;52218;51.224;-2.328;2022-12-18T06:34:47;2.70;99.90
65074;DHT22;52218;51.224;-2.328;2022-12-18T06:38:29;2.70;99.90
65074;DHT22;52218;51.224;-2.328;2022-12-18T06:42:11;2.80;99.90
65074;DHT22;52218;51.224;-2.328;2022-12-18T06:45:59;2.80;99.90
65074;DHT22;52218;51.224;-2.328;2022-12-18T06:49:41;2.80;99.90
65074;DHT22;52218;51.224;-2.328;2022-12-18T06:53:23;2.90;99.90
65074;DHT22;52218;51.224;-2.328;2022-12-18T06:57:05;2.90;99.90
65074;DHT22;52218;51.224;-2.328;2022-12-18T07:00:47;3.00;99.90
65074;DHT22;52218;51.224;-2.328;2022-12-18T07:04:30;3.00;99.90
65074;DHT22;52218;51.224;-2.328;2022-12-18T07:08:12;3.10;99.90
65074;DHT22;52218;51.224;-2.328;2022-12-18T07:11:54;3.10;99.90
65074;DHT22;52218;51.224;-2.328;2022-12-18T07:15:36;3.10;99.90
65074;DHT22;52218;51.224;-2.328;2022-12-18T07:19:18;3.10;99.90
65074;DHT22;52218;51.224;-2.328;2022-12-18T07:23:02;3.10;99.90
65074;DHT22;52218;51.224;-2.328;2022-12-18T07:26:48;3.10;99.90
65074;DHT22;52218;51.224;-2.328;2022-12-18T07:30:30;3.10;99.90
65074;DHT22;52218;51.224;-2.328;2022-12-18T07:34:13;3.20;99.90
65074;DHT22;52218;51.224;-2.328;2022-12-18T07:37:55;3.20;99.90
65074;DHT22;52218;51.224;-2.328;2022-12-18T07:41:37;3.20;99.90
65074;DHT22;52218;51.224;-2.328;2022-12-18T07:45:27;3.10;99.90
65074;DHT22;52218;51.224;-2.328;2022-12-18T07:49:09;3.10;99.90
65074;DHT22;52218;51.224;-2.328;2022-12-18T07:52:51;3.10;99.90
65074;DHT22;52218;51.224;-2.328;2022-12-18T07:56:33;3.20;99.90
65074;DHT22;52218;51.224;-2.328;2022-12-18T08:00:15;3.20;99.90
65074;DHT22;52218;51.224;-2.328;2022-12-18T08:03:58;3.20;99.90
65074;DHT22;52218;51.224;-2.328;2022-12-18T08:07:40;3.10;99.90
65074;DHT22;52218;51.224;-2.328;2022-12-18T08:11:24;3.10;99.90
65074;DHT22;52218;51.224;-2.328;2022-12-18T08:15:07;3.10;99.90
65074;DHT22;52218;51.224;-2.328;2022-12-18T08:18:49;3.10;99.90
65074;DHT22;52218;51.224;-2.328;2022-12-18T08:22:34;3.10;99.90
65074;DHT22;52218;51.224;-2.328;2022-12-18T08:26:17;3.10;99.90
65074;DHT22;52218;51.224;-2.328;2022-12-18T08:30:01;3.10;99.90
65074;DHT22;52218;51.224;-2.328;2022-12-18T08:33:45;3.10;99.90
65074;DHT22;52218;51.224;-2.328;2022-12-18T08:37:27;3.00;99.90
65074;DHT22;52218;51.224;-2.328;2022-12-18T08:41:12;3.00;99.90
65074;DHT22;52218;51.224;-2.328;2022-12-18T08:44:54;2.90;99.90
65074;DHT22;52218;51.224;-2.328;2022-12-18T08:48:36;2.90;99.90
65074;DHT22;52218;51.224;-2.328;2022-12-18T08:52:18;2.90;99.90
65074;DHT22;52218;51.224;-2.328;2022-12-18T08:56:00;2.90;99.90
65074;DHT22;52218;51.224;-2.328;2022-12-18T08:59:42;2.80;99.90
65074;DHT22;52218;51.224;-2.328;2022-12-18T09:03:24;2.90;99.90
65074;DHT22;52218;51.224;-2.328;2022-12-18T09:07:06;2.90;99.90
65074;DHT22;52218;51.224;-2.328;2022-12-18T09:10:49;2.90;99.90
65074;DHT22;52218;51.224;-2.328;2022-12-18T09:14:31;2.90;99.90
65074;DHT22;52218;51.224;-2.328;2022-12-18T09:18:14;2.90;99.90
65074;DHT22;52218;51.224;-2.328;2022-12-18T09:21:57;2.90;99.90
65074;DHT22;52218;51.224;-2.328;2022-12-18T09:25:39;2.90;99.90
65074;DHT22;52218;51.224;-2.328;2022-12-18T09:29:21;2.90;99.90
65074;DHT22;52218;51.224;-2.328;2022-12-18T09:33:03;2.90;99.90
65074;DHT22;52218;51.224;-2.328;2022-12-18T09:36:47;2.90;99.90
65074;DHT22;52218;51.224;-2.328;2022-12-18T09:40:56;2.90;99.90
65074;DHT22;52218;51.224;-2.328;2022-12-18T09:44:40;2.90;99.90
65074;DHT22;52218;51.224;-2.328;2022-12-18T09:48:34;3.00;99.90
65074;DHT22;52218;51.224;-2.328;2022-12-18T09:52:39;2.90;99.90
65074;DHT22;52218;51.224;-2.328;2022-12-18T09:56:25;3.00;99.90
65074;DHT22;52218;51.224;-2.328;2022-12-18T10:00:19;3.00;99.90
65074;DHT22;52218;51.224;-2.328;2022-12-18T10:04:01;3.00;99.90
65074;DHT22;52218;51.224;-2.328;2022-12-18T10:16:01;3.10;99.90
65074;DHT22;52218;51.224;-2.328;2022-12-18T10:24:03;3.20;99.90
65074;DHT22;52218;51.224;-2.328;2022-12-18T10:27:56;3.20;99.90
65074;DHT22;52218;51.224;-2.328;2022-12-18T10:31:39;3.30;99.90
65074;DHT22;52218;51.224;-2.328;2022-12-18T10:35:26;3.30;99.90
65074;DHT22;52218;51.224;-2.328;2022-12-18T10:39:22;3.30;99.90
65074;DHT22;52218;51.224;-2.328;2022-12-18T10:46:54;3.40;99.90
65074;DHT22;52218;51.224;-2.328;2022-12-18T10:50:39;3.40;99.90
65074;DHT22;52218;51.224;-2.328;2022-12-18T10:54:49;3.50;99.90
65074;DHT22;52218;51.224;-2.328;2022-12-18T10:58:37;3.50;99.90
65074;DHT22;52218;51.224;-2.328;2022-12-18T11:02:35;3.50;99.90
65074;DHT22;52218;51.224;-2.328;2022-12-18T11:06:20;3.50;99.90
65074;DHT22;52218;51.224;-2.328;2022-12-18T11:10:19;3.60;99.90
65074;DHT22;52218;51.224;-2.328;2022-12-18T11:14:06;3.60;99.90
65074;DHT22;52218;51.224;-2.328;2022-12-18T11:17:54;3.70;99.90
65074;DHT22;52218;51.224;-2.328;2022-12-18T11:21:41;3.70;99.90
65074;DHT22;52218;51.224;-2.328;2022-12-18T11:25:24;3.80;99.90
65074;DHT22;52218;51.224;-2.328;2022-12-18T11:29:18;3.80;99.90
65074;DHT22;52218;51.224;-2.328;2022-12-18T11:33:15;3.90;99.90
65074;DHT22;52218;51.224;-2.328;2022-12-18T11:37:01;3.90;99.90
65074;DHT22;52218;51.224;-2.328;2022-12-18T11:40:49;4.00;99.90
65074;DHT22;52218;51.224;-2.328;2022-12-18T11:44:50;4.00;99.90
65074;DHT22;52218;51.224;-2.328;2022-12-18T11:48:37;4.00;99.90
65074;DHT22;52218;51.224;-2.328;2022-12-18T11:52:34;4.00;99.90
65074;DHT22;52218;51.224;-2.328;2022-12-18T11:56:32;4.10;99.90
65074;DHT22;52218;51.224;-2.328;2022-12-18T12:00:21;4.10;99.90
65074;DHT22;52218;51.224;-2.328;2022-12-18T12:16:45;4.30;99.90
65074;DHT22;52218;51.224;-2.328;2022-12-18T12:20:41;4.40;99.90
65074;DHT22;52218;51.224;-2.328;2022-12-18T12:24:49;4.50;99.90
65074;DHT22;52218;51.224;-2.328;2022-12-18T12:33:08;4.70;99.90
65074;DHT22;52218;51.224;-2.328;2022-12-18T12:37:25;4.80;99.90
65074;DHT22;52218;51.224;-2.328;2022-12-18T12:41:14;4.80;99.90
65074;DHT22;52218;51.224;-2.328;2022-12-18T12:45:50;4.90;99.90
65074;DHT22;52218;51.224;-2.328;2022-12-18T12:49:34;5.00;99.90
65074;DHT22;52218;51.224;-2.328;2022-12-18T12:53:29;5.10;99.90
65074;DHT22;52218;51.224;-2.328;2022-12-18T12:57:36;5.10;99.90
65074;DHT22;52218;51.224;-2.328;2022-12-18T13:09:16;5.40;99.90
65074;DHT22;52218;51.224;-2.328;2022-12-18T13:13:11;5.50;99.90
65074;DHT22;52218;51.224;-2.328;2022-12-18T13:17:30;5.60;99.90
65074;DHT22;52218;51.224;-2.328;2022-12-18T13:21:23;5.70;99.90
65074;DHT22;52218;51.224;-2.328;2022-12-18T13:25:30;5.80;99.90
65074;DHT22;52218;51.224;-2.328;2022-12-18T13:29:43;5.90;99.90
65074;DHT22;52218;51.224;-2.328;2022-12-18T13:45:00;6.40;99.90
65074;DHT22;52218;51.224;-2.328;2022-12-18T13:48:53;6.60;99.90
65074;DHT22;52218;51.224;-2.328;2022-12-18T13:52:39;6.80;99.90
65074;DHT22;52218;51.224;-2.328;2022-12-18T13:56:27;6.90;99.90
65074;DHT22;52218;51.224;-2.328;2022-12-18T14:04:34;7.20;99.90
65074;DHT22;52218;51.224;-2.328;2022-12-18T14:08:18;7.30;99.90
65074;DHT22;52218;51.224;-2.328;2022-12-18T14:12:02;7.40;99.90
65074;DHT22;52218;51.224;-2.328;2022-12-18T14:16:05;7.50;99.90
65074;DHT22;52218;51.224;-2.328;2022-12-18T14:19:50;7.60;99.90
65074;DHT22;52218;51.224;-2.328;2022-12-18T14:27:22;7.70;99.90
65074;DHT22;52218;51.224;-2.328;2022-12-18T14:31:04;7.80;99.90
65074;DHT22;52218;51.224;-2.328;2022-12-18T14:34:55;7.80;99.90
65074;DHT22;52218;51.224;-2.328;2022-12-18T14:38:39;7.90;99.90
65074;DHT22;52218;51.224;-2.328;2022-12-18T14:42:21;7.90;99.90
65074;DHT22;52218;51.224;-2.328;2022-12-18T14:46:05;8.00;99.90
65074;DHT22;52218;51.224;-2.328;2022-12-18T14:49:48;8.00;99.90
65074;DHT22;52218;51.224;-2.328;2022-12-18T14:53:35;8.10;99.90
65074;DHT22;52218;51.224;-2.328;2022-12-18T14:57:37;8.20;99.90
65074;DHT22;52218;51.224;-2.328;2022-12-18T15:01:26;8.20;99.90
65074;DHT22;52218;51.224;-2.328;2022-12-18T15:05:24;8.20;99.90
65074;DHT22;52218;51.224;-2.328;2022-12-18T15:09:22;8.30;99.90
65074;DHT22;52218;51.224;-2.328;2022-12-18T15:13:06;8.30;99.90
65074;DHT22;52218;51.224;-2.328;2022-12-18T15:16:54;8.30;99.90
65074;DHT22;52218;51.224;-2.328;2022-12-18T15:24:32;8.30;99.90
65074;DHT22;52218;51.224;-2.328;2022-12-18T15:28:28;8.40;99.90
65074;DHT22;52218;51.224;-2.328;2022-12-18T15:32:20;8.40;99.90
65074;DHT22;52218;51.224;-2.328;2022-12-18T15:36:08;8.40;99.90
65074;DHT22;52218;51.224;-2.328;2022-12-18T15:39:50;8.40;99.90
65074;DHT22;52218;51.224;-2.328;2022-12-18T15:43:32;8.50;99.90
65074;DHT22;52218;51.224;-2.328;2022-12-18T15:47:18;8.50;99.90
65074;DHT22;52218;51.224;-2.328;2022-12-18T15:51:00;8.40;99.90
65074;DHT22;52218;51.224;-2.328;2022-12-18T15:54:42;8.50;99.90
65074;DHT22;52218;51.224;-2.328;2022-12-18T15:58:43;8.50;99.90
65074;DHT22;52218;51.224;-2.328;2022-12-18T16:02:25;8.50;99.90
65074;DHT22;52218;51.224;-2.328;2022-12-18T16:06:09;8.60;99.90
65074;DHT22;52218;51.224;-2.328;2022-12-18T16:09:51;8.60;99.90
65074;DHT22;52218;51.224;-2.328;2022-12-18T16:13:33;8.60;99.90
65074;DHT22;52218;51.224;-2.328;2022-12-18T16:17:16;8.70;99.90
65074;DHT22;52218;51.224;-2.328;2022-12-18T16:20:58;8.70;99.90
65074;DHT22;52218;51.224;-2.328;2022-12-18T16:24:41;8.70;99.90
65074;DHT22;52218;51.224;-2.328;2022-12-18T16:28:24;8.70;99.90
65074;DHT22;52218;51.224;-2.328;2022-12-18T16:32:06;8.80;99.90
65074;DHT22;52218;51.224;-2.328;2022-12-18T16:35:52;8.80;99.90
65074;DHT22;52218;51.224;-2.328;2022-12-18T16:39:34;8.80;99.90
65074;DHT22;52218;51.224;-2.328;2022-12-18T16:43:16;8.80;99.90
65074;DHT22;52218;51.224;-2.328;2022-12-18T16:46:58;8.90;99.90
65074;DHT22;52218;51.224;-2.328;2022-12-18T16:50:43;8.90;99.90
65074;DHT22;52218;51.224;-2.328;2022-12-18T16:54:25;8.90;99.90
65074;DHT22;52218;51.224;-2.328;2022-12-18T16:58:11;8.90;99.90
65074;DHT22;52218;51.224;-2.328;2022-12-18T17:01:53;9.00;99.90
65074;DHT22;52218;51.224;-2.328;2022-12-18T17:05:36;9.00;99.90
65074;DHT22;52218;51.224;-2.328;2022-12-18T17:09:19;9.00;99.90
65074;DHT22;52218;51.224;-2.328;2022-12-18T17:13:07;9.00;99.90
65074;DHT22;52218;51.224;-2.328;2022-12-18T17:16:49;9.10;99.90
65074;DHT22;52218;51.224;-2.328;2022-12-18T17:20:51;9.10;99.90
65074;DHT22;52218;51.224;-2.328;2022-12-18T17:24:33;9.10;99.90
65074;DHT22;52218;51.224;-2.328;2022-12-18T17:28:16;9.10;99.90
65074;DHT22;52218;51.224;-2.328;2022-12-18T17:31:58;9.20;99.90
65074;DHT22;52218;51.224;-2.328;2022-12-18T17:35:41;9.20;99.90
65074;DHT22;52218;51.224;-2.328;2022-12-18T17:39:23;9.20;99.90
65074;DHT22;52218;51.224;-2.328;2022-12-18T17:43:08;9.30;99.90
65074;DHT22;52218;51.224;-2.328;2022-12-18T17:46:51;9.30;99.90
65074;DHT22;52218;51.224;-2.328;2022-12-18T17:50:33;9.30;99.90
65074;DHT22;52218;51.224;-2.328;2022-12-18T17:54:16;9.30;99.90
65074;DHT22;52218;51.224;-2.328;2022-12-18T17:57:58;9.30;99.90
65074;DHT22;52218;51.224;-2.328;2022-12-18T18:01:40;9.40;99.90
65074;DHT22;52218;51.224;-2.328;2022-12-18T18:05:25;9.40;99.90
65074;DHT22;52218;51.224;-2.328;2022-12-18T18:09:08;9.40;99.90
65074;DHT22;52218;51.224;-2.328;2022-12-18T18:12:57;9.50;99.90
65074;DHT22;52218;51.224;-2.328;2022-12-18T18:16:57;9.50;99.90
65074;DHT22;52218;51.224;-2.328;2022-12-18T18:20:45;9.50;99.90
65074;DHT22;52218;51.224;-2.328;2022-12-18T18:24:27;9.60;99.90
65074;DHT22;52218;51.224;-2.328;2022-12-18T18:28:09;9.60;99.90
65074;DHT22;52218;51.224;-2.328;2022-12-18T18:31:51;9.60;99.90
65074;DHT22;52218;51.224;-2.328;2022-12-18T18:35:33;9.60;99.90
65074;DHT22;52218;51.224;-2.328;2022-12-18T18:39:35;9.70;99.90
65074;DHT22;52218;51.224;-2.328;2022-12-18T18:43:17;9.70;99.90
65074;DHT22;52218;51.224;-2.328;2022-12-18T18:46:59;9.80;99.90
65074;DHT22;52218;51.224;-2.328;2022-12-18T18:50:43;9.80;99.90
65074;DHT22;52218;51.224;-2.328;2022-12-18T18:54:26;9.80;99.90
65074;DHT22;52218;51.224;-2.328;2022-12-18T18:58:08;9.90;99.90
65074;DHT22;52218;51.224;-2.328;2022-12-18T19:01:50;10.00;99.90
65074;DHT22;52218;51.224;-2.328;2022-12-18T19:05:34;10.00;99.90
65074;DHT22;52218;51.224;-2.328;2022-12-18T19:09:16;10.10;99.90
65074;DHT22;52218;51.224;-2.328;2022-12-18T19:12:58;10.20;99.90
65074;DHT22;52218;51.224;-2.328;2022-12-18T19:16:58;10.20;99.90
65074;DHT22;52218;51.224;-2.328;2022-12-18T19:20:42;10.30;99.90
65074;DHT22;52218;51.224;-2.328;2022-12-18T19:24:24;10.30;99.90
65074;DHT22;52218;51.224;-2.328;2022-12-18T19:28:06;10.40;99.90
65074;DHT22;52218;51.224;-2.328;2022-12-18T19:32:03;10.40;99.90
65074;DHT22;52218;51.224;-2.328;2022-12-18T19:35:45;10.50;99.90
65074;DHT22;52218;51.224;-2.328;2022-12-18T19:39:27;10.50;99.90
65074;DHT22;52218;51.224;-2.328;2022-12-18T19:43:10;10.50;99.90
65074;DHT22;52218;51.224;-2.328;2022-12-18T19:46:53;10.60;99.90
65074;DHT22;52218;51.224;-2.328;2022-12-18T19:50:40;10.60;99.90
65074;DHT22;52218;51.224;-2.328;2022-12-18T19:54:22;10.70;99.90
65074;DHT22;52218;51.224;-2.328;2022-12-18T19:58:06;10.70;99.90
65074;DHT22;52218;51.224;-2.328;2022-12-18T20:01:49;10.70;99.90
65074;DHT22;52218;51.224;-2.328;2022-12-18T20:05:31;10.70;99.90
65074;DHT22;52218;51.224;-2.328;2022-12-18T20:09:13;10.70;99.90
65074;DHT22;52218;51.224;-2.328;2022-12-18T20:12:55;10.80;99.90
65074;DHT22;52218;51.224;-2.328;2022-12-18T20:16:38;10.80;99.90
65074;DHT22;52218;51.224;-2.328;2022-12-18T20:20:21;10.80;99.90
65074;DHT22;52218;51.224;-2.328;2022-12-18T20:24:03;10.80;99.90
65074;DHT22;52218;51.224;-2.328;2022-12-18T20:27:45;10.90;99.90
65074;DHT22;52218;51.224;-2.328;2022-12-18T20:31:28;10.90;99.90
65074;DHT22;52218;51.224;-2.328;2022-12-18T20:35:10;11.00;99.90
65074;DHT22;52218;51.224;-2.328;2022-12-18T20:38:52;11.00;99.90
65074;DHT22;52218;51.224;-2.328;2022-12-18T20:42:40;11.10;99.90
65074;DHT22;52218;51.224;-2.328;2022-12-18T20:46:22;11.10;99.90
65074;DHT22;52218;51.224;-2.328;2022-12-18T20:50:05;11.10;99.90
65074;DHT22;52218;51.224;-2.328;2022-12-18T20:53:48;11.20;99.90
65074;DHT22;52218;51.224;-2.328;2022-12-18T20:57:30;11.20;99.90
65074;DHT22;52218;51.224;-2.328;2022-12-18T21:01:14;11.20;99.90
65074;DHT22;52218;51.224;-2.328;2022-12-18T21:04:56;11.30;99.90
65074;DHT22;52218;51.224;-2.328;2022-12-18T21:08:38;11.30;99.90
65074;DHT22;52218;51.224;-2.328;2022-12-18T21:12:20;11.30;99.90
65074;DHT22;52218;51.224;-2.328;2022-12-18T21:16:40;11.40;99.90
65074;DHT22;52218;51.224;-2.328;2022-12-18T21:20:24;11.50;99.90
65074;DHT22;52218;51.224;-2.328;2022-12-18T21:24:07;11.50;99.90
65074;DHT22;52218;51.224;-2.328;2022-12-18T21:27:49;11.50;99.90
65074;DHT22;52218;51.224;-2.328;2022-12-18T21:31:33;11.60;99.90
65074;DHT22;52218;51.224;-2.328;2022-12-18T21:35:16;11.70;99.90
65074;DHT22;52218;51.224;-2.328;2022-12-18T21:39:00;11.80;99.90
65074;DHT22;52218;51.224;-2.328;2022-12-18T21:42:43;11.80;99.90
65074;DHT22;52218;51.224;-2.328;2022-12-18T21:46:45;11.90;99.90
65074;DHT22;52218;51.224;-2.328;2022-12-18T21:50:35;11.90;99.90
65074;DHT22;52218;51.224;-2.328;2022-12-18T21:54:18;12.00;99.90
65074;DHT22;52218;51.224;-2.328;2022-12-18T21:58:00;12.00;99.90
65074;DHT22;52218;51.224;-2.328;2022-12-18T22:01:43;12.00;99.90
65074;DHT22;52218;51.224;-2.328;2022-12-18T22:05:25;12.10;99.90
65074;DHT22;52218;51.224;-2.328;2022-12-18T22:09:09;12.00;99.90
65074;DHT22;52218;51.224;-2.328;2022-12-18T22:12:52;12.10;99.90
65074;DHT22;52218;51.224;-2.328;2022-12-18T22:16:36;12.10;99.90
65074;DHT22;52218;51.224;-2.328;2022-12-18T22:20:18;12.10;99.90
65074;DHT22;52218;51.224;-2.328;2022-12-18T22:24:06;12.10;99.90
65074;DHT22;52218;51.224;-2.328;2022-12-18T22:27:48;12.10;99.90
65074;DHT22;52218;51.224;-2.328;2022-12-18T22:31:48;12.10;99.90
65074;DHT22;52218;51.224;-2.328;2022-12-18T22:35:30;12.10;99.90
65074;DHT22;52218;51.224;-2.328;2022-12-18T22:39:20;12.10;99.90
65074;DHT22;52218;51.224;-2.328;2022-12-18T22:43:03;12.10;99.90
65074;DHT22;52218;51.224;-2.328;2022-12-18T22:46:48;12.10;99.90
65074;DHT22;52218;51.224;-2.328;2022-12-18T22:50:47;12.10;99.90
65074;DHT22;52218;51.224;-2.328;2022-12-18T22:54:31;12.10;99.90
65074;DHT22;52218;51.224;-2.328;2022-12-18T22:58:13;12.10;99.90
65074;DHT22;52218;51.224;-2.328;2022-12-18T23:01:55;12.00;99.90
65074;DHT22;52218;51.224;-2.328;2022-12-18T23:05:40;12.00;99.90
65074;DHT22;52218;51.224;-2.328;2022-12-18T23:09:22;12.00;99.90
65074;DHT22;52218;51.224;-2.328;2022-12-18T23:13:04;12.00;99.90
65074;DHT22;52218;51.224;-2.328;2022-12-18T23:16:46;12.00;99.90
65074;DHT22;52218;51.224;-2.328;2022-12-18T23:20:30;12.00;99.90
65074;DHT22;52218;51.224;-2.328;2022-12-18T23:24:12;12.00;99.90
65074;DHT22;52218;51.224;-2.328;2022-12-18T23:27:54;12.10;99.90
65074;DHT22;52218;51.224;-2.328;2022-12-18T23:31:37;12.10;99.90
65074;DHT22;52218;51.224;-2.328;2022-12-18T23:35:20;12.10;99.90
65074;DHT22;52218;51.224;-2.328;2022-12-18T23:39:02;12.10;99.90
65074;DHT22;52218;51.224;-2.328;2022-12-18T23:42:44;12.10;99.90
65074;DHT22;52218;51.224;-2.328;2022-12-18T23:46:29;12.10;99.90
65074;DHT22;52218;51.224;-2.328;2022-12-18T23:50:11;12.20;99.90
65074;DHT22;52218;51.224;-2.328;2022-12-18T23:53:55;12.20;99.90
65074;DHT22;52218;51.224;-2.328;2022-12-18T23:57:38;12.20;99.90
